createdAt,value
2018-06-29T17:33:42.346Z,0
2018-06-29T17:34:30.433Z,0
2018-06-29T17:34:42.219Z,5.625
2018-06-29T17:34:53.993Z,5.625
2018-06-29T17:35:05.773Z,5.625
2018-06-29T17:35:17.585Z,5.625
2018-06-29T17:35:28.361Z,5.625
2018-06-29T17:35:40.202Z,5.625
2018-06-29T17:35:51.980Z,0
2018-06-29T17:36:03.974Z,5.625
2018-06-29T17:36:15.745Z,5.625
2018-06-29T17:36:27.495Z,5.625
2018-06-29T17:36:39.282Z,5.625
2018-06-29T17:36:50.068Z,5.625
2018-06-29T17:37:01.841Z,5.625
2018-06-29T17:37:13.622Z,5.625
2018-06-29T17:37:25.407Z,5.625
2018-06-29T17:37:37.192Z,5.625
2018-06-29T17:37:48.979Z,5.625
2018-06-29T17:38:00.737Z,5.625
2018-06-29T17:38:12.520Z,5.625
2018-06-29T17:38:23.292Z,5.625
2018-06-29T17:38:35.097Z,5.625
2018-06-29T17:38:46.903Z,5.625
2018-06-29T17:38:58.684Z,5.625
2018-06-29T17:39:52.702Z,0
2018-06-29T17:40:03.482Z,5.625
2018-06-29T17:44:39.621Z,0
2018-06-29T17:44:50.397Z,5.625
2018-06-29T17:45:33.965Z,0
2018-06-29T17:45:45.758Z,5.625
2018-06-29T17:45:57.500Z,0
2018-06-29T17:46:08.262Z,5.625
2018-06-29T17:46:20.023Z,16.875
2018-06-29T17:46:31.856Z,230.625
2018-06-29T17:46:43.600Z,253.125
2018-06-29T17:46:55.348Z,264.375
2018-06-29T17:47:07.131Z,270
2018-06-29T17:47:18.891Z,270
2018-06-29T17:47:30.652Z,270
2018-06-29T17:47:42.425Z,275.625
2018-06-29T17:47:53.190Z,275.625
2018-06-29T17:48:04.014Z,275.625
2018-06-29T17:48:15.767Z,275.625
2018-06-29T17:48:27.510Z,275.625
2018-06-29T17:48:38.281Z,275.625
2018-06-29T17:48:49.041Z,275.625
2018-06-29T17:49:01.813Z,275.625
2018-06-29T17:49:13.573Z,275.625
2018-06-29T17:49:24.528Z,275.625
2018-06-29T17:49:36.356Z,275.625
2018-06-29T17:49:48.127Z,275.625
2018-06-29T17:49:59.881Z,270
2018-06-29T17:50:11.639Z,275.625
2018-06-29T17:50:22.407Z,270
2018-06-29T17:50:34.177Z,270
2018-06-29T17:50:45.967Z,264.375
2018-06-29T17:50:56.745Z,264.375
2018-06-29T17:51:08.519Z,270
2018-06-29T17:51:20.262Z,270
2018-06-29T17:51:31.028Z,275.625
2018-06-29T17:51:42.783Z,275.625
2018-06-29T17:51:54.546Z,275.625
2018-06-29T17:52:06.311Z,258.75
2018-06-29T17:52:17.072Z,275.625
2018-06-29T17:52:28.841Z,275.625
2018-06-29T17:52:40.601Z,281.25
2018-06-29T17:52:52.419Z,281.25
2018-06-29T17:53:03.107Z,281.25
2018-06-29T17:53:13.882Z,275.625
2018-06-29T17:53:25.637Z,275.625
2018-06-29T17:53:36.405Z,275.625
2018-06-29T17:53:48.179Z,281.25
2018-06-29T17:53:58.965Z,275.625
2018-06-29T17:54:10.657Z,286.875
2018-06-29T17:54:22.441Z,275.625
2018-06-29T17:54:35.211Z,270
2018-06-29T17:54:45.978Z,264.375
2018-06-29T17:54:57.791Z,247.5
2018-06-29T17:55:09.610Z,241.875
2018-06-29T17:55:21.335Z,225
2018-06-29T17:55:33.020Z,219.375
2018-06-29T17:55:44.772Z,196.875
2018-06-29T17:55:56.541Z,174.375
2018-06-29T17:56:08.314Z,281.25
2018-06-29T17:56:20.058Z,393.75
2018-06-29T17:56:31.842Z,360
2018-06-29T17:56:42.599Z,348.75
2018-06-29T17:56:54.344Z,331.875
2018-06-29T17:57:05.095Z,320.625
2018-06-29T17:57:16.873Z,303.75
2018-06-29T17:57:28.618Z,315
2018-06-29T17:57:40.369Z,275.625
2018-06-29T17:57:52.103Z,275.625
2018-06-29T17:58:03.870Z,275.625
2018-06-29T17:58:15.630Z,275.625
2018-06-29T17:58:27.476Z,292.5
2018-06-29T17:58:39.166Z,298.125
2018-06-29T17:58:50.928Z,309.375
2018-06-29T17:59:02.682Z,247.5
2018-06-29T17:59:14.457Z,315
2018-06-29T17:59:25.192Z,298.125
2018-06-29T17:59:36.959Z,286.875
2018-06-29T17:59:48.797Z,286.875
2018-06-29T18:00:00.453Z,253.125
2018-06-29T18:00:12.208Z,230.625
2018-06-29T18:00:23.957Z,241.875
2018-06-29T18:00:35.724Z,208.125
2018-06-29T18:00:47.519Z,208.125
2018-06-29T18:00:59.230Z,185.625
2018-06-29T18:01:09.971Z,185.625
2018-06-29T18:01:21.738Z,185.625
2018-06-29T18:01:33.508Z,174.375
2018-06-29T18:01:45.274Z,180
2018-06-29T18:01:57.046Z,174.375
2018-06-29T18:02:08.836Z,174.375
2018-06-29T18:02:20.590Z,180
2018-06-29T18:02:32.349Z,185.625
2018-06-29T18:02:44.110Z,185.625
2018-06-29T18:02:55.849Z,185.625
2018-06-29T18:03:06.595Z,191.25
2018-06-29T18:03:17.343Z,185.625
2018-06-29T18:03:28.096Z,185.625
2018-06-29T18:03:38.937Z,185.625
2018-06-29T18:03:50.685Z,185.625
2018-06-29T18:04:01.458Z,185.625
2018-06-29T18:04:13.222Z,196.875
2018-06-29T18:04:25.111Z,191.25
2018-06-29T18:04:35.741Z,281.25
2018-06-29T18:04:46.486Z,230.625
2018-06-29T18:04:58.267Z,264.375
2018-06-29T18:05:10.018Z,286.875
2018-06-29T18:05:21.798Z,303.75
2018-06-29T18:05:32.543Z,326.25
2018-06-29T18:05:44.248Z,354.375
2018-06-29T18:05:54.994Z,371.25
2018-06-29T18:06:06.750Z,388.125
2018-06-29T18:06:18.513Z,393.75
2018-06-29T18:06:30.270Z,399.375
2018-06-29T18:06:42.028Z,416.25
2018-06-29T18:06:53.784Z,427.5
2018-06-29T18:07:04.548Z,433.125
2018-06-29T18:07:16.283Z,450
2018-06-29T18:07:27.030Z,450
2018-06-29T18:07:38.805Z,455.625
2018-06-29T18:07:50.534Z,466.875
2018-06-29T18:08:02.309Z,472.5
2018-06-29T18:08:14.074Z,478.125
2018-06-29T18:08:24.808Z,483.75
2018-06-29T18:08:36.590Z,478.125
2018-06-29T18:08:48.339Z,466.875
2018-06-29T18:08:59.085Z,455.625
2018-06-29T18:09:09.852Z,433.125
2018-06-29T18:09:21.606Z,410.625
2018-06-29T18:09:33.394Z,382.5
2018-06-29T18:09:45.168Z,360
2018-06-29T18:09:56.988Z,331.875
2018-06-29T18:10:08.711Z,247.5
2018-06-29T18:10:20.467Z,270
2018-06-29T18:10:32.209Z,241.875
2018-06-29T18:10:43.968Z,225
2018-06-29T18:10:55.721Z,202.5
2018-06-29T18:11:07.497Z,185.625
2018-06-29T18:11:19.265Z,168.75
2018-06-29T18:11:31.032Z,157.5
2018-06-29T18:11:42.878Z,146.25
2018-06-29T18:11:52.672Z,146.25
2018-06-29T18:12:05.357Z,140.625
2018-06-29T18:12:16.108Z,146.25
2018-06-29T18:12:27.854Z,146.25
2018-06-29T18:12:39.629Z,140.625
2018-06-29T18:12:51.406Z,140.625
2018-06-29T18:13:02.282Z,140.625
2018-06-29T18:13:14.798Z,123.75
2018-06-29T18:13:26.519Z,135
2018-06-29T18:13:38.283Z,129.375
2018-06-29T18:13:49.043Z,140.625
2018-06-29T18:14:00.812Z,135
2018-06-29T18:14:12.592Z,140.625
2018-06-29T18:14:23.312Z,140.625
2018-06-29T18:14:35.065Z,140.625
2018-06-29T18:14:46.829Z,151.875
2018-06-29T18:14:58.593Z,151.875
2018-06-29T18:15:10.335Z,163.125
2018-06-29T18:15:22.087Z,168.75
2018-06-29T18:15:32.838Z,168.75
2018-06-29T18:15:44.608Z,180
2018-06-29T18:15:56.352Z,202.5
2018-06-29T18:16:07.160Z,157.5
2018-06-29T18:16:18.851Z,219.375
2018-06-29T18:16:30.631Z,230.625
2018-06-29T18:16:42.397Z,225
2018-06-29T18:16:54.161Z,253.125
2018-06-29T18:17:03.911Z,275.625
2018-06-29T18:17:15.663Z,281.25
2018-06-29T18:17:27.429Z,281.25
2018-06-29T18:17:39.193Z,270
2018-06-29T18:17:50.000Z,264.375
2018-06-29T18:18:01.855Z,253.125
2018-06-29T18:18:13.460Z,270
2018-06-29T18:18:25.218Z,258.75
2018-06-29T18:18:37.004Z,264.375
2018-06-29T18:18:48.783Z,281.25
2018-06-29T18:19:00.586Z,292.5
2018-06-29T18:19:12.268Z,303.75
2018-06-29T18:19:24.074Z,326.25
2018-06-29T18:19:35.822Z,343.125
2018-06-29T18:19:48.562Z,360
2018-06-29T18:20:00.317Z,376.875
2018-06-29T18:20:12.244Z,382.5
2018-06-29T18:20:24.052Z,399.375
2018-06-29T18:20:36.850Z,410.625
2018-06-29T18:20:47.638Z,427.5
2018-06-29T18:20:59.422Z,438.75
2018-06-29T18:21:11.195Z,444.375
2018-06-29T18:21:21.960Z,461.25
2018-06-29T18:21:33.707Z,466.875
2018-06-29T18:21:45.488Z,472.5
2018-06-29T18:21:57.251Z,472.5
2018-06-29T18:22:09.043Z,478.125
2018-06-29T18:22:20.794Z,478.125
2018-06-29T18:22:31.622Z,489.375
2018-06-29T18:22:43.402Z,500.625
2018-06-29T18:22:54.181Z,495
2018-06-29T18:23:05.936Z,500.625
2018-06-29T18:23:17.773Z,500.625
2018-06-29T18:23:29.515Z,500.625
2018-06-29T18:23:41.257Z,500.625
2018-06-29T18:23:53.012Z,500.625
2018-06-29T18:24:03.752Z,506.25
2018-06-29T18:24:14.536Z,500.625
2018-06-29T18:24:26.345Z,500.625
2018-06-29T18:24:38.083Z,489.375
2018-06-29T18:24:48.855Z,489.375
2018-06-29T18:25:00.693Z,489.375
2018-06-29T18:25:12.458Z,495
2018-06-29T18:25:24.246Z,495
2018-06-29T18:25:36.024Z,500.625
2018-06-29T18:25:47.774Z,489.375
2018-06-29T18:25:57.518Z,495
2018-06-29T18:26:09.282Z,483.75
2018-06-29T18:26:21.179Z,118.125
2018-06-29T18:26:32.966Z,337.5
2018-06-29T18:26:44.711Z,393.75
2018-06-29T18:26:56.481Z,410.625
2018-06-29T18:27:08.257Z,405
2018-06-29T18:27:19.031Z,135
2018-06-29T18:27:30.863Z,129.375
2018-06-29T18:27:42.601Z,123.75
2018-06-29T18:27:54.394Z,129.375
2018-06-29T18:28:06.174Z,123.75
2018-06-29T18:28:18.921Z,123.75
2018-06-29T18:28:30.729Z,123.75
2018-06-29T18:28:42.487Z,129.375
2018-06-29T18:28:53.279Z,129.375
2018-06-29T18:29:05.056Z,118.125
2018-06-29T18:29:15.826Z,118.125
2018-06-29T18:29:27.579Z,118.125
2018-06-29T18:29:39.409Z,118.125
2018-06-29T18:29:51.189Z,118.125
2018-06-29T18:30:00.895Z,123.75
2018-06-29T18:30:12.702Z,118.125
2018-06-29T18:30:24.463Z,123.75
2018-06-29T18:30:36.215Z,118.125
2018-06-29T18:30:46.975Z,118.125
2018-06-29T18:30:58.734Z,123.75
2018-06-29T18:31:09.522Z,95.625
2018-06-29T18:31:21.319Z,95.625
2018-06-29T18:31:33.020Z,123.75
2018-06-29T18:31:43.812Z,118.125
2018-06-29T18:31:55.556Z,118.125
2018-06-29T18:32:06.314Z,118.125
2018-06-29T18:32:18.065Z,118.125
2018-06-29T18:32:29.829Z,112.5
2018-06-29T18:32:41.599Z,112.5
2018-06-29T18:32:53.357Z,112.5
2018-06-29T18:33:05.107Z,112.5
2018-06-29T18:33:16.868Z,112.5
2018-06-29T18:33:28.675Z,112.5
2018-06-29T18:33:40.471Z,112.5
2018-06-29T18:33:52.221Z,112.5
2018-06-29T18:34:03.963Z,112.5
2018-06-29T18:34:14.705Z,112.5
2018-06-29T18:34:26.468Z,112.5
2018-06-29T18:34:38.252Z,112.5
2018-06-29T18:34:50.000Z,112.5
2018-06-29T18:35:00.751Z,112.5
2018-06-29T18:35:12.517Z,112.5
2018-06-29T18:35:24.292Z,112.5
2018-06-29T18:35:36.035Z,112.5
2018-06-29T18:35:47.830Z,106.875
2018-06-29T18:35:59.571Z,106.875
2018-06-29T18:36:11.358Z,106.875
2018-06-29T18:36:22.134Z,106.875
2018-06-29T18:36:32.905Z,106.875
2018-06-29T18:36:44.677Z,106.875
2018-06-29T18:36:56.380Z,106.875
2018-06-29T18:37:08.151Z,106.875
2018-06-29T18:37:19.915Z,106.875
2018-06-29T18:37:30.678Z,106.875
2018-06-29T18:37:42.428Z,106.875
2018-06-29T18:37:54.189Z,106.875
2018-06-29T18:38:05.924Z,101.25
2018-06-29T18:38:17.678Z,101.25
2018-06-29T18:38:28.453Z,101.25
2018-06-29T18:38:40.194Z,101.25
2018-06-29T18:38:51.999Z,101.25
2018-06-29T18:39:01.765Z,101.25
2018-06-29T18:39:13.566Z,101.25
2018-06-29T18:39:25.266Z,101.25
2018-06-29T18:39:36.085Z,101.25
2018-06-29T18:39:47.848Z,101.25
2018-06-29T18:39:59.594Z,101.25
2018-06-29T18:40:10.350Z,101.25
2018-06-29T18:40:23.088Z,95.625
2018-06-29T18:40:34.855Z,95.625
2018-06-29T18:40:46.605Z,95.625
2018-06-29T18:40:57.363Z,95.625
2018-06-29T18:41:07.122Z,95.625
2018-06-29T18:41:17.904Z,95.625
2018-06-29T18:41:29.680Z,95.625
2018-06-29T18:41:41.457Z,95.625
2018-06-29T18:41:53.227Z,95.625
2018-06-29T18:42:05.081Z,95.625
2018-06-29T18:42:15.808Z,95.625
2018-06-29T18:42:26.550Z,95.625
2018-06-29T18:42:38.333Z,95.625
2018-06-29T18:42:50.091Z,90
2018-06-29T18:43:01.875Z,90
2018-06-29T18:43:11.621Z,90
2018-06-29T18:43:23.397Z,90
2018-06-29T18:43:35.141Z,90
2018-06-29T18:43:46.897Z,90
2018-06-29T18:43:58.688Z,90
2018-06-29T18:44:09.444Z,90
2018-06-29T18:44:20.206Z,90
2018-06-29T18:44:31.969Z,90
2018-06-29T18:44:42.710Z,90
2018-06-29T18:44:54.548Z,90
2018-06-29T18:45:06.251Z,90
2018-06-29T18:45:17.993Z,90
2018-06-29T18:45:29.785Z,90
2018-06-29T18:45:40.531Z,84.375
2018-06-29T18:45:52.291Z,84.375
2018-06-29T18:46:04.110Z,84.375
2018-06-29T18:46:15.875Z,84.375
2018-06-29T18:46:27.631Z,84.375
2018-06-29T18:46:38.386Z,84.375
2018-06-29T18:46:50.135Z,84.375
2018-06-29T18:47:00.920Z,78.75
2018-06-29T18:47:12.688Z,78.75
2018-06-29T18:47:24.440Z,78.75
2018-06-29T18:47:35.199Z,73.125
2018-06-29T18:47:46.949Z,73.125
2018-06-29T18:47:58.752Z,73.125
2018-06-29T18:48:09.496Z,73.125
2018-06-29T18:48:21.241Z,73.125
2018-06-29T18:48:33.006Z,73.125
2018-06-29T18:48:43.782Z,73.125
2018-06-29T18:48:55.546Z,73.125
2018-06-29T18:49:07.329Z,73.125
2018-06-29T18:49:19.092Z,73.125
2018-06-29T18:49:29.795Z,67.5
2018-06-29T18:49:41.582Z,67.5
2018-06-29T18:49:52.383Z,67.5
2018-06-29T18:50:03.047Z,67.5
2018-06-29T18:50:13.787Z,67.5
2018-06-29T18:50:25.594Z,61.875
2018-06-29T18:50:36.407Z,61.875
2018-06-29T18:50:48.169Z,56.25
2018-06-29T18:50:59.945Z,56.25
2018-06-29T18:51:11.741Z,56.25
2018-06-29T18:51:23.577Z,50.625
2018-06-29T18:51:35.351Z,50.625
2018-06-29T18:51:47.152Z,56.25
2018-06-29T18:51:58.928Z,56.25
2018-06-29T18:52:09.721Z,56.25
2018-06-29T18:52:22.380Z,56.25
2018-06-29T18:52:34.139Z,50.625
2018-06-29T18:52:45.913Z,50.625
2018-06-29T18:52:57.680Z,50.625
2018-06-29T18:53:09.428Z,50.625
2018-06-29T18:53:21.287Z,50.625
2018-06-29T18:53:32.018Z,50.625
2018-06-29T18:53:43.760Z,50.625
2018-06-29T18:53:55.529Z,50.625
2018-06-29T18:54:07.266Z,45
2018-06-29T18:54:19.031Z,45
2018-06-29T18:54:30.789Z,45
2018-06-29T18:54:41.580Z,45
2018-06-29T18:54:53.338Z,45
2018-06-29T18:55:05.097Z,45
2018-06-29T18:55:16.888Z,45
2018-06-29T18:55:26.625Z,45
2018-06-29T18:55:38.393Z,45
2018-06-29T18:55:51.162Z,45
2018-06-29T18:56:02.963Z,45
2018-06-29T18:56:14.768Z,45
2018-06-29T18:56:26.527Z,45
2018-06-29T18:56:38.287Z,45
2018-06-29T18:56:50.028Z,45
2018-06-29T18:57:01.805Z,39.375
2018-06-29T18:57:13.558Z,39.375
2018-06-29T18:57:25.305Z,39.375
2018-06-29T18:57:37.094Z,39.375
2018-06-29T18:57:48.859Z,39.375
2018-06-29T18:58:00.621Z,39.375
2018-06-29T18:58:11.398Z,39.375
2018-06-29T18:58:23.156Z,39.375
2018-06-29T18:58:33.924Z,39.375
2018-06-29T18:58:44.730Z,39.375
2018-06-29T18:58:54.520Z,39.375
2018-06-29T18:59:06.201Z,39.375
2018-06-29T18:59:17.954Z,39.375
2018-06-29T18:59:29.741Z,39.375
2018-06-29T18:59:40.527Z,39.375
2018-06-29T18:59:51.246Z,39.375
2018-06-29T19:00:01.998Z,39.375
2018-06-29T19:00:13.734Z,39.375
2018-06-29T19:00:24.483Z,39.375
2018-06-29T19:00:36.274Z,39.375
2018-06-29T19:00:48.032Z,39.375
2018-06-29T19:00:59.795Z,39.375
2018-06-29T19:01:10.638Z,39.375
2018-06-29T19:01:22.363Z,39.375
2018-06-29T19:01:34.148Z,39.375
2018-06-29T19:01:44.879Z,39.375
2018-06-29T19:01:54.667Z,39.375
2018-06-29T19:02:06.465Z,39.375
2018-06-29T19:02:18.236Z,39.375
2018-06-29T19:02:28.990Z,39.375
2018-06-29T19:02:40.743Z,39.375
2018-06-29T19:02:51.506Z,33.75
2018-06-29T19:03:03.253Z,33.75
2018-06-29T19:03:14.000Z,33.75
2018-06-29T19:03:25.767Z,33.75
2018-06-29T19:03:36.520Z,33.75
2018-06-29T19:03:47.270Z,33.75
2018-06-29T19:03:58.047Z,33.75
2018-06-29T19:04:09.786Z,33.75
2018-06-29T19:04:21.633Z,33.75
2018-06-29T19:04:32.384Z,33.75
2018-06-29T19:04:44.137Z,33.75
2018-06-29T19:04:55.889Z,33.75
2018-06-29T19:05:06.661Z,33.75
2018-06-29T19:05:18.401Z,33.75
2018-06-29T19:05:30.159Z,33.75
2018-06-29T19:05:41.883Z,33.75
2018-06-29T19:05:53.664Z,33.75
2018-06-29T19:06:05.436Z,33.75
2018-06-29T19:06:17.206Z,33.75
2018-06-29T19:06:28.964Z,33.75
2018-06-29T19:06:40.735Z,33.75
2018-06-29T19:06:52.736Z,33.75
2018-06-29T19:07:03.516Z,33.75
2018-06-29T19:07:15.284Z,33.75
2018-06-29T19:07:26.012Z,33.75
2018-06-29T19:07:37.790Z,33.75
2018-06-29T19:07:49.548Z,33.75
2018-06-29T19:08:00.299Z,33.75
2018-06-29T19:08:12.069Z,33.75
2018-06-29T19:08:22.856Z,33.75
2018-06-29T19:08:34.602Z,33.75
2018-06-29T19:08:46.358Z,33.75
2018-06-29T19:08:59.110Z,28.125
2018-06-29T19:09:10.868Z,28.125
2018-06-29T19:09:22.613Z,28.125
2018-06-29T19:09:34.472Z,28.125
2018-06-29T19:09:46.118Z,28.125
2018-06-29T19:09:57.870Z,28.125
2018-06-29T19:10:09.620Z,28.125
2018-06-29T19:10:21.372Z,28.125
2018-06-29T19:10:33.145Z,28.125
2018-06-29T19:10:44.897Z,28.125
2018-06-29T19:10:56.658Z,28.125
2018-06-29T19:11:08.422Z,28.125
2018-06-29T19:11:20.186Z,28.125
2018-06-29T19:11:31.938Z,28.125
2018-06-29T19:11:43.676Z,28.125
2018-06-29T19:11:55.462Z,28.125
2018-06-29T19:12:07.215Z,28.125
2018-06-29T19:12:18.953Z,28.125
2018-06-29T19:12:30.716Z,28.125
2018-06-29T19:12:42.480Z,28.125
2018-06-29T19:12:53.235Z,28.125
2018-06-29T19:13:04.025Z,28.125
2018-06-29T19:13:15.765Z,28.125
2018-06-29T19:13:27.538Z,28.125
2018-06-29T19:13:39.295Z,28.125
2018-06-29T19:13:49.159Z,28.125
2018-06-29T19:13:59.907Z,28.125
2018-06-29T19:14:11.656Z,28.125
2018-06-29T19:14:23.407Z,28.125
2018-06-29T19:14:35.157Z,28.125
2018-06-29T19:14:45.914Z,28.125
2018-06-29T19:14:57.717Z,28.125
2018-06-29T19:15:09.476Z,28.125
2018-06-29T19:15:21.242Z,28.125
2018-06-29T19:15:33.064Z,28.125
2018-06-29T19:15:44.850Z,28.125
2018-06-29T19:15:56.614Z,22.5
2018-06-29T19:16:08.367Z,22.5
2018-06-29T19:16:20.147Z,22.5
2018-06-29T19:16:31.913Z,22.5
2018-06-29T19:16:43.755Z,22.5
2018-06-29T19:16:55.532Z,22.5
2018-06-29T19:17:07.317Z,22.5
2018-06-29T19:17:19.068Z,22.5
2018-06-29T19:17:29.812Z,22.5
2018-06-29T19:17:41.585Z,22.5
2018-06-29T19:17:52.304Z,22.5
2018-06-29T19:18:04.066Z,22.5
2018-06-29T19:18:15.828Z,22.5
2018-06-29T19:18:27.655Z,22.5
2018-06-29T19:18:39.354Z,22.5
2018-06-29T19:18:50.159Z,22.5
2018-06-29T19:19:01.914Z,22.5
2018-06-29T19:19:13.666Z,22.5
2018-06-29T19:19:25.433Z,22.5
2018-06-29T19:19:36.173Z,22.5
2018-06-29T19:19:47.949Z,22.5
2018-06-29T19:19:59.726Z,22.5
2018-06-29T19:20:11.478Z,22.5
2018-06-29T19:20:22.242Z,22.5
2018-06-29T19:20:33.010Z,22.5
2018-06-29T19:20:44.769Z,22.5
2018-06-29T19:20:56.530Z,22.5
2018-06-29T19:21:08.271Z,22.5
2018-06-29T19:21:20.026Z,22.5
2018-06-29T19:21:31.785Z,22.5
2018-06-29T19:21:43.538Z,22.5
2018-06-29T19:21:55.291Z,22.5
2018-06-29T19:22:07.060Z,22.5
2018-06-29T19:22:18.832Z,22.5
2018-06-29T19:22:29.590Z,22.5
2018-06-29T19:22:41.356Z,22.5
2018-06-29T19:22:53.126Z,16.875
2018-06-29T19:23:04.879Z,16.875
2018-06-29T19:23:16.684Z,16.875
2018-06-29T19:23:28.427Z,16.875
2018-06-29T19:23:39.199Z,16.875
2018-06-29T19:23:50.987Z,16.875
2018-06-29T19:24:02.711Z,16.875
2018-06-29T19:24:14.490Z,16.875
2018-06-29T19:24:26.248Z,16.875
2018-06-29T19:24:38.033Z,16.875
2018-06-29T19:24:49.805Z,16.875
2018-06-29T19:25:01.594Z,16.875
2018-06-29T19:25:13.327Z,16.875
2018-06-29T19:25:25.127Z,16.875
2018-06-29T19:25:36.842Z,16.875
2018-06-29T19:25:48.591Z,16.875
2018-06-29T19:26:00.349Z,16.875
2018-06-29T19:26:12.121Z,16.875
2018-06-29T19:26:23.870Z,16.875
2018-06-29T19:26:35.635Z,16.875
2018-06-29T19:26:47.394Z,16.875
2018-06-29T19:26:59.148Z,16.875
2018-06-29T19:27:10.906Z,16.875
2018-06-29T19:27:22.697Z,16.875
2018-06-29T19:27:34.452Z,16.875
2018-06-29T19:27:46.200Z,16.875
2018-06-29T19:27:57.954Z,16.875
2018-06-29T19:28:09.712Z,16.875
2018-06-29T19:28:20.458Z,16.875
2018-06-29T19:28:32.208Z,16.875
2018-06-29T19:28:43.988Z,16.875
2018-06-29T19:28:55.741Z,16.875
2018-06-29T19:29:06.482Z,16.875
2018-06-29T19:29:18.337Z,16.875
2018-06-29T19:29:31.078Z,16.875
2018-06-29T19:29:42.843Z,16.875
2018-06-29T19:29:54.607Z,16.875
2018-06-29T19:30:06.376Z,16.875
2018-06-29T19:30:17.138Z,11.25
2018-06-29T19:30:28.890Z,11.25
2018-06-29T19:30:40.684Z,11.25
2018-06-29T19:30:52.374Z,11.25
2018-06-29T19:31:04.139Z,11.25
2018-06-29T19:31:15.908Z,11.25
2018-06-29T19:31:27.661Z,11.25
2018-06-29T19:31:39.133Z,11.25
2018-06-29T19:31:49.857Z,11.25
2018-06-29T19:32:01.645Z,11.25
2018-06-29T19:32:13.407Z,11.25
2018-06-29T19:32:25.190Z,11.25
2018-06-29T19:32:36.935Z,11.25
2018-06-29T19:32:48.696Z,11.25
2018-06-29T19:33:00.480Z,11.25
2018-06-29T19:33:11.333Z,11.25
2018-06-29T19:33:23.133Z,11.25
2018-06-29T19:33:34.897Z,11.25
2018-06-29T19:33:45.681Z,11.25
2018-06-29T19:33:57.660Z,11.25
2018-06-29T19:34:09.201Z,11.25
2018-06-29T19:34:20.960Z,11.25
2018-06-29T19:34:32.715Z,11.25
2018-06-29T19:34:44.476Z,11.25
2018-06-29T19:34:56.238Z,11.25
2018-06-29T19:35:07.997Z,11.25
2018-06-29T19:35:19.749Z,11.25
2018-06-29T19:35:30.488Z,11.25
2018-06-29T19:35:42.243Z,11.25
2018-06-29T19:35:52.993Z,11.25
2018-06-29T19:36:02.727Z,11.25
2018-06-29T19:36:12.485Z,11.25
2018-06-29T19:36:24.236Z,11.25
2018-06-29T19:36:36.106Z,11.25
2018-06-29T19:36:47.866Z,11.25
2018-06-29T19:36:59.608Z,11.25
2018-06-29T19:37:09.357Z,11.25
2018-06-29T19:37:21.103Z,11.25
2018-06-29T19:37:31.876Z,11.25
2018-06-29T19:37:43.653Z,11.25
2018-06-29T19:37:54.416Z,11.25
2018-06-29T19:38:06.184Z,11.25
2018-06-29T19:38:17.950Z,11.25
2018-06-29T19:38:29.743Z,11.25
2018-06-29T19:38:41.519Z,11.25
2018-06-29T19:38:53.313Z,11.25
2018-06-29T19:39:05.101Z,11.25
2018-06-29T19:39:15.828Z,5.625
2018-06-29T19:39:27.571Z,5.625
2018-06-29T19:39:38.340Z,5.625
2018-06-29T19:39:50.076Z,5.625
2018-06-29T19:40:01.847Z,5.625
2018-06-29T19:40:13.598Z,5.625
2018-06-29T19:40:25.340Z,5.625
2018-06-29T19:40:37.090Z,5.625
2018-06-29T19:40:48.836Z,5.625
2018-06-29T19:41:00.585Z,5.625
2018-06-29T19:41:13.350Z,5.625
2018-06-29T19:41:25.102Z,5.625
2018-06-29T19:41:35.869Z,5.625
2018-06-29T19:41:47.628Z,5.625
2018-06-29T19:41:59.403Z,5.625
2018-06-29T19:42:11.198Z,5.625
2018-06-29T19:42:22.959Z,5.625
2018-06-29T19:42:34.713Z,5.625
2018-06-29T19:42:46.445Z,5.625
2018-06-29T19:42:58.221Z,5.625
2018-06-29T19:43:09.986Z,5.625
2018-06-29T19:43:20.742Z,5.625
2018-06-29T19:43:31.493Z,5.625
2018-06-29T19:43:43.254Z,5.625
2018-06-29T19:43:54.011Z,5.625
2018-06-29T19:44:05.787Z,5.625
2018-06-29T19:44:17.542Z,5.625
2018-06-29T19:44:29.368Z,5.625
2018-06-29T19:44:41.080Z,5.625
2018-06-29T19:44:52.839Z,5.625
2018-06-29T19:45:04.589Z,5.625
2018-06-29T19:45:16.341Z,5.625
2018-06-29T19:45:28.114Z,5.625
2018-06-29T19:45:39.918Z,5.625
2018-06-29T19:45:51.759Z,5.625
2018-06-29T19:46:03.524Z,5.625
2018-06-29T19:46:14.275Z,5.625
2018-06-29T19:46:25.043Z,5.625
2018-06-29T19:46:36.807Z,5.625
2018-06-29T19:46:48.597Z,5.625
2018-06-29T19:47:00.353Z,5.625
2018-06-29T19:47:11.137Z,5.625
2018-06-29T19:47:22.866Z,5.625
2018-06-29T19:47:34.613Z,5.625
2018-06-29T19:47:46.379Z,5.625
2018-06-29T19:47:58.157Z,5.625
2018-06-29T19:48:09.914Z,5.625
2018-06-29T19:48:21.674Z,5.625
2018-06-29T19:48:33.424Z,5.625
2018-06-29T19:48:45.186Z,5.625
2018-06-29T19:48:56.960Z,5.625
2018-06-29T19:49:08.716Z,5.625
2018-06-29T19:49:20.471Z,5.625
2018-06-29T19:49:32.213Z,5.625
2018-06-29T19:49:43.965Z,5.625
2018-06-29T19:49:55.708Z,5.625
2018-06-29T19:50:05.510Z,5.625
2018-06-29T19:50:17.272Z,5.625
2018-06-29T19:50:29.074Z,5.625
2018-06-29T19:50:40.832Z,5.625
2018-06-29T19:50:52.625Z,5.625
2018-06-29T19:51:03.377Z,5.625
2018-06-29T19:51:15.200Z,5.625
2018-06-29T19:51:26.946Z,5.625
2018-06-29T19:51:37.705Z,5.625
2018-06-29T19:51:48.454Z,5.625
2018-06-29T19:51:59.219Z,5.625
2018-06-29T19:52:09.951Z,0
2018-06-29T19:52:21.742Z,0
2018-06-29T19:52:33.538Z,0
2018-06-29T19:52:45.340Z,0
2018-06-29T19:52:57.192Z,0
2018-06-29T19:53:08.809Z,0
2018-06-29T19:53:19.572Z,0
2018-06-29T19:53:30.318Z,0
2018-06-29T19:53:42.074Z,0
2018-06-29T19:53:52.838Z,0
2018-06-29T19:54:03.686Z,0
2018-06-29T19:54:15.600Z,0
2018-06-29T19:54:26.544Z,0
2018-06-29T19:54:38.321Z,0
2018-06-29T19:54:50.089Z,0
2018-06-29T19:55:01.882Z,0
2018-06-29T19:55:13.642Z,0
2018-06-29T19:55:24.392Z,0
2018-06-29T19:55:36.151Z,0
2018-06-29T19:55:47.901Z,0
2018-06-29T19:55:58.653Z,0
2018-06-29T19:56:10.427Z,0
2018-06-29T19:56:22.222Z,0
2018-06-29T19:56:34.019Z,0
2018-06-29T19:56:45.769Z,0
2018-06-29T19:56:57.551Z,0
2018-06-29T19:57:08.312Z,0
2018-06-29T19:57:20.070Z,0
2018-06-29T19:57:30.905Z,0
2018-06-29T19:57:42.649Z,0
2018-06-29T19:57:54.404Z,0
2018-06-29T19:58:06.182Z,0
2018-06-29T19:58:18.027Z,0
2018-06-29T19:58:28.773Z,0
2018-06-29T19:58:40.549Z,0
2018-06-29T19:58:52.359Z,0
2018-06-29T19:59:03.064Z,0
2018-06-29T19:59:14.881Z,0
2018-06-29T19:59:26.631Z,0
2018-06-29T19:59:38.416Z,0
2018-06-29T19:59:50.172Z,0
2018-06-29T20:00:01.922Z,0
2018-06-29T20:00:13.771Z,0
2018-06-29T20:00:25.585Z,0
2018-06-29T20:00:35.325Z,0
2018-06-29T20:00:47.106Z,0
2018-06-29T20:00:58.840Z,0
2018-06-29T20:01:09.612Z,0
2018-06-29T20:01:21.409Z,0
2018-06-29T20:01:33.154Z,0
2018-06-29T20:01:44.939Z,0
2018-06-29T20:01:56.704Z,0
2018-06-29T20:02:07.491Z,0
2018-06-29T20:02:18.292Z,0
2018-06-29T20:02:30.055Z,0
2018-06-29T20:02:41.843Z,0
2018-06-29T20:02:53.633Z,0
2018-06-29T20:03:05.393Z,0
2018-06-29T20:03:16.173Z,0
2018-06-29T20:03:25.928Z,0
2018-06-29T20:03:37.694Z,0
2018-06-29T20:03:49.469Z,0
2018-06-29T20:04:01.231Z,0
2018-06-29T20:04:13.012Z,0
2018-06-29T20:04:23.753Z,0
2018-06-29T20:04:35.562Z,0
2018-06-29T20:04:47.367Z,0
2018-06-29T20:04:59.065Z,0
2018-06-29T20:05:10.923Z,0
2018-06-29T20:05:22.629Z,0
2018-06-29T20:05:34.380Z,0
2018-06-29T20:05:45.212Z,0
2018-06-29T20:05:56.982Z,0
2018-06-29T20:06:08.771Z,0
2018-06-29T20:06:20.548Z,0
2018-06-29T20:06:32.299Z,0
2018-06-29T20:06:44.039Z,0
2018-06-29T20:06:55.793Z,0
2018-06-29T20:07:07.538Z,0
2018-06-29T20:07:18.360Z,0
2018-06-29T20:07:29.157Z,0
2018-06-29T20:07:40.988Z,0
2018-06-29T20:07:53.749Z,0
2018-06-29T20:08:05.509Z,0
2018-06-29T20:08:17.261Z,0
2018-06-29T20:08:28.062Z,0
2018-06-29T20:08:38.829Z,0